sensor_id;sensor_type;location;lat;lon;timestamp;pressure;altitude;pressure_sealevel;temperature;humidity
70242;BME280;57631;52.218;0.108;2022-11-20T00:02:08;101164.59;;;10.11;62.81
70242;BME280;57631;52.218;0.108;2022-11-20T00:04:33;101163.04;;;9.94;62.19
70242;BME280;57631;52.218;0.108;2022-11-20T00:06:58;101160.59;;;11.12;59.72
70242;BME280;57631;52.218;0.108;2022-11-20T00:09:23;101160.79;;;9.87;65.70
70242;BME280;57631;52.218;0.108;2022-11-20T00:11:49;101158.91;;;10.84;61.92
70242;BME280;57631;52.218;0.108;2022-11-20T00:14:14;101152.31;;;10.53;61.56
70242;BME280;57631;52.218;0.108;2022-11-20T00:16:40;101145.87;;;10.52;63.06
70242;BME280;57631;52.218;0.108;2022-11-20T00:19:06;101143.28;;;11.02;61.74
70242;BME280;57631;52.218;0.108;2022-11-20T00:21:31;101145.72;;;10.69;63.15
70242;BME280;57631;52.218;0.108;2022-11-20T00:23:57;101150.21;;;10.56;62.05
70242;BME280;57631;52.218;0.108;2022-11-20T00:26:24;101155.80;;;10.39;61.60
70242;BME280;57631;52.218;0.108;2022-11-20T00:28:50;101161.43;;;7.77;71.13
70242;BME280;57631;52.218;0.108;2022-11-20T00:31:15;101156.13;;;8.53;70.94
70242;BME280;57631;52.218;0.108;2022-11-20T00:33:38;101151.30;;;8.17;71.07
70242;BME280;57631;52.218;0.108;2022-11-20T00:36:06;101143.03;;;9.71;67.55
70242;BME280;57631;52.218;0.108;2022-11-20T00:38:29;101135.68;;;9.79;65.74
70242;BME280;57631;52.218;0.108;2022-11-20T00:40:56;101130.04;;;9.72;65.66
70242;BME280;57631;52.218;0.108;2022-11-20T00:43:20;101132.09;;;8.47;70.41
70242;BME280;57631;52.218;0.108;2022-11-20T00:45:46;101128.43;;;8.95;69.11
70242;BME280;57631;52.218;0.108;2022-11-20T00:48:12;101127.15;;;9.71;67.58
70242;BME280;57631;52.218;0.108;2022-11-20T00:50:37;101124.96;;;9.08;67.25
70242;BME280;57631;52.218;0.108;2022-11-20T00:53:02;101122.47;;;9.43;67.23
70242;BME280;57631;52.218;0.108;2022-11-20T00:55:28;101118.97;;;9.18;69.15
70242;BME280;57631;52.218;0.108;2022-11-20T00:57:53;101110.35;;;9.74;67.61
70242;BME280;57631;52.218;0.108;2022-11-20T01:00:18;101108.33;;;9.37;69.63
70242;BME280;57631;52.218;0.108;2022-11-20T01:02:44;101106.68;;;9.60;69.27
70242;BME280;57631;52.218;0.108;2022-11-20T01:05:09;101103.62;;;10.35;66.20
70242;BME280;57631;52.218;0.108;2022-11-20T01:07:36;101102.40;;;10.34;65.62
70242;BME280;57631;52.218;0.108;2022-11-20T01:10:01;101107.40;;;8.21;73.63
70242;BME280;57631;52.218;0.108;2022-11-20T01:12:26;101109.31;;;7.99;74.70
70242;BME280;57631;52.218;0.108;2022-11-20T01:14:52;101103.80;;;6.85;78.09
70242;BME280;57631;52.218;0.108;2022-11-20T01:17:17;101092.74;;;9.03;70.62
70242;BME280;57631;52.218;0.108;2022-11-20T01:19:42;101085.34;;;8.72;71.67
70242;BME280;57631;52.218;0.108;2022-11-20T01:22:08;101074.56;;;9.59;69.44
70242;BME280;57631;52.218;0.108;2022-11-20T01:24:34;101068.61;;;9.49;69.21
70242;BME280;57631;52.218;0.108;2022-11-20T01:26:59;101072.81;;;7.17;77.72
70242;BME280;57631;52.218;0.108;2022-11-20T01:29:24;101069.93;;;8.64;73.80
70242;BME280;57631;52.218;0.108;2022-11-20T01:31:50;101065.47;;;9.07;71.00
70242;BME280;57631;52.218;0.108;2022-11-20T01:34:17;101064.03;;;8.60;73.88
70242;BME280;57631;52.218;0.108;2022-11-20T01:36:42;101064.29;;;9.12;72.00
70242;BME280;57631;52.218;0.108;2022-11-20T01:39:09;101064.11;;;8.66;73.57
70242;BME280;57631;52.218;0.108;2022-11-20T01:41:33;101058.80;;;10.09;69.87
70242;BME280;57631;52.218;0.108;2022-11-20T01:43:56;101051.48;;;10.19;67.83
70242;BME280;57631;52.218;0.108;2022-11-20T01:46:22;101049.15;;;9.65;70.04
70242;BME280;57631;52.218;0.108;2022-11-20T01:48:52;101044.56;;;10.45;67.04
70242;BME280;57631;52.218;0.108;2022-11-20T01:51:19;101043.70;;;10.66;66.83
70242;BME280;57631;52.218;0.108;2022-11-20T01:53:39;101044.82;;;8.57;72.51
70242;BME280;57631;52.218;0.108;2022-11-20T01:56:08;101033.39;;;10.78;65.56
70242;BME280;57631;52.218;0.108;2022-11-20T01:58:33;101029.68;;;10.35;65.31
70242;BME280;57631;52.218;0.108;2022-11-20T02:00:56;101026.22;;;10.47;66.24
70242;BME280;57631;52.218;0.108;2022-11-20T02:03:20;101024.65;;;10.35;66.97
70242;BME280;57631;52.218;0.108;2022-11-20T02:05:49;101025.36;;;10.95;64.41
70242;BME280;57631;52.218;0.108;2022-11-20T02:08:12;101022.21;;;11.05;64.33
70242;BME280;57631;52.218;0.108;2022-11-20T02:10:37;101018.12;;;9.68;67.75
70242;BME280;57631;52.218;0.108;2022-11-20T02:13:01;101017.17;;;8.49;73.44
70242;BME280;57631;52.218;0.108;2022-11-20T02:15:27;101012.89;;;9.27;70.53
70242;BME280;57631;52.218;0.108;2022-11-20T02:17:53;101009.18;;;10.05;68.45
70242;BME280;57631;52.218;0.108;2022-11-20T02:20:18;101006.36;;;10.41;68.94
70242;BME280;57631;52.218;0.108;2022-11-20T02:22:50;101006.89;;;9.02;71.22
70242;BME280;57631;52.218;0.108;2022-11-20T02:25:09;101001.30;;;9.89;68.21
70242;BME280;57631;52.218;0.108;2022-11-20T02:27:35;100999.24;;;10.20;68.46
70242;BME280;57631;52.218;0.108;2022-11-20T02:30:02;100994.53;;;10.30;67.54
70242;BME280;57631;52.218;0.108;2022-11-20T02:32:27;100990.56;;;10.71;66.70
70242;BME280;57631;52.218;0.108;2022-11-20T02:34:51;100985.97;;;10.78;65.82
70242;BME280;57631;52.218;0.108;2022-11-20T02:37:17;100979.53;;;10.29;66.60
70242;BME280;57631;52.218;0.108;2022-11-20T02:39:42;100977.27;;;10.53;65.39
70242;BME280;57631;52.218;0.108;2022-11-20T02:42:07;100969.31;;;10.66;66.99
70242;BME280;57631;52.218;0.108;2022-11-20T02:44:32;100962.99;;;9.80;69.02
70242;BME280;57631;52.218;0.108;2022-11-20T02:46:57;100965.40;;;9.13;70.99
70242;BME280;57631;52.218;0.108;2022-11-20T02:49:23;100955.47;;;10.03;68.99
70242;BME280;57631;52.218;0.108;2022-11-20T02:51:48;100955.95;;;7.86;74.96
70242;BME280;57631;52.218;0.108;2022-11-20T02:54:14;100951.23;;;10.06;69.29
70242;BME280;57631;52.218;0.108;2022-11-20T02:56:39;100949.81;;;8.63;73.94
70242;BME280;57631;52.218;0.108;2022-11-20T02:59:05;100951.84;;;7.94;78.44
70242;BME280;57631;52.218;0.108;2022-11-20T03:01:30;100939.81;;;9.10;73.85
70242;BME280;57631;52.218;0.108;2022-11-20T03:03:56;100932.70;;;9.40;71.81
70242;BME280;57631;52.218;0.108;2022-11-20T03:06:22;100926.80;;;9.33;71.37
70242;BME280;57631;52.218;0.108;2022-11-20T03:08:46;100924.35;;;8.99;71.04
70242;BME280;57631;52.218;0.108;2022-11-20T03:11:12;100920.13;;;9.53;69.69
70242;BME280;57631;52.218;0.108;2022-11-20T03:13:37;100916.01;;;9.78;67.99
70242;BME280;57631;52.218;0.108;2022-11-20T03:16:08;100916.66;;;10.22;67.79
70242;BME280;57631;52.218;0.108;2022-11-20T03:18:29;100909.73;;;10.54;67.17
70242;BME280;57631;52.218;0.108;2022-11-20T03:20:57;100901.73;;;9.71;68.57
70242;BME280;57631;52.218;0.108;2022-11-20T03:23:19;100902.00;;;9.42;69.18
70242;BME280;57631;52.218;0.108;2022-11-20T03:25:50;100899.23;;;9.80;68.24
70242;BME280;57631;52.218;0.108;2022-11-20T03:28:11;100891.39;;;10.31;66.67
70242;BME280;57631;52.218;0.108;2022-11-20T03:30:37;100890.54;;;10.37;66.08
70242;BME280;57631;52.218;0.108;2022-11-20T03:33:02;100885.99;;;10.45;67.39
70242;BME280;57631;52.218;0.108;2022-11-20T03:35:27;100879.22;;;10.51;66.08
70242;BME280;57631;52.218;0.108;2022-11-20T03:37:52;100882.45;;;8.57;72.77
70242;BME280;57631;52.218;0.108;2022-11-20T03:40:17;100876.08;;;10.71;67.20
70242;BME280;57631;52.218;0.108;2022-11-20T03:42:42;100874.99;;;10.11;66.48
70242;BME280;57631;52.218;0.108;2022-11-20T03:45:08;100874.08;;;10.81;64.46
70242;BME280;57631;52.218;0.108;2022-11-20T03:47:34;100868.86;;;10.60;64.70
70242;BME280;57631;52.218;0.108;2022-11-20T03:49:59;100869.35;;;9.84;67.21
70242;BME280;57631;52.218;0.108;2022-11-20T03:52:24;100871.00;;;10.03;66.17
70242;BME280;57631;52.218;0.108;2022-11-20T03:54:50;100871.25;;;9.97;66.84
70242;BME280;57631;52.218;0.108;2022-11-20T03:57:15;100875.51;;;8.41;73.76
70242;BME280;57631;52.218;0.108;2022-11-20T03:59:41;100877.49;;;8.42;72.22
70242;BME280;57631;52.218;0.108;2022-11-20T04:02:07;100871.75;;;8.06;72.11
70242;BME280;57631;52.218;0.108;2022-11-20T04:04:33;100870.03;;;7.76;75.52
70242;BME280;57631;52.218;0.108;2022-11-20T04:06:58;100874.17;;;7.35;77.24
70242;BME280;57631;52.218;0.108;2022-11-20T04:09:24;100868.14;;;7.82;77.10
70242;BME280;57631;52.218;0.108;2022-11-20T04:11:49;100863.55;;;9.27;71.97
70242;BME280;57631;52.218;0.108;2022-11-20T04:14:15;100860.68;;;10.25;67.11
70242;BME280;57631;52.218;0.108;2022-11-20T04:16:40;100855.45;;;10.25;67.04
70242;BME280;57631;52.218;0.108;2022-11-20T04:19:09;100854.01;;;10.28;66.43
70242;BME280;57631;52.218;0.108;2022-11-20T04:21:31;100849.12;;;9.03;71.85
70242;BME280;57631;52.218;0.108;2022-11-20T04:23:57;100840.63;;;9.98;68.84
70242;BME280;57631;52.218;0.108;2022-11-20T04:26:23;100836.46;;;10.49;65.96
70242;BME280;57631;52.218;0.108;2022-11-20T04:28:47;100831.54;;;9.93;68.60
70242;BME280;57631;52.218;0.108;2022-11-20T04:31:15;100827.06;;;9.56;69.05
70242;BME280;57631;52.218;0.108;2022-11-20T04:33:39;100822.43;;;9.35;68.96
70242;BME280;57631;52.218;0.108;2022-11-20T04:36:06;100820.30;;;8.05;74.15
70242;BME280;57631;52.218;0.108;2022-11-20T04:38:29;100806.98;;;9.30;70.80
70242;BME280;57631;52.218;0.108;2022-11-20T04:40:57;100803.91;;;8.78;70.29
70242;BME280;57631;52.218;0.108;2022-11-20T04:43:20;100807.87;;;7.81;73.85
70242;BME280;57631;52.218;0.108;2022-11-20T04:45:50;100807.84;;;7.82;74.50
70242;BME280;57631;52.218;0.108;2022-11-20T04:48:10;100810.30;;;8.28;73.96
70242;BME280;57631;52.218;0.108;2022-11-20T04:50:40;100806.40;;;8.93;71.69
70242;BME280;57631;52.218;0.108;2022-11-20T04:53:01;100800.99;;;8.94;70.51
70242;BME280;57631;52.218;0.108;2022-11-20T04:55:27;100799.36;;;9.27;69.05
70242;BME280;57631;52.218;0.108;2022-11-20T04:57:52;100794.32;;;8.56;70.07
70242;BME280;57631;52.218;0.108;2022-11-20T05:00:18;100788.87;;;9.13;68.72
70242;BME280;57631;52.218;0.108;2022-11-20T05:02:43;100788.01;;;8.51;71.02
70242;BME280;57631;52.218;0.108;2022-11-20T05:05:09;100779.95;;;8.40;70.91
70242;BME280;57631;52.218;0.108;2022-11-20T05:07:35;100777.15;;;8.67;68.79
70242;BME280;57631;52.218;0.108;2022-11-20T05:10:00;100770.68;;;8.41;70.73
70242;BME280;57631;52.218;0.108;2022-11-20T05:12:26;100769.68;;;8.70;70.57
70242;BME280;57631;52.218;0.108;2022-11-20T05:14:52;100767.32;;;7.67;72.76
70242;BME280;57631;52.218;0.108;2022-11-20T05:17:17;100769.73;;;6.20;76.70
70242;BME280;57631;52.218;0.108;2022-11-20T05:19:42;100757.71;;;7.22;74.37
70242;BME280;57631;52.218;0.108;2022-11-20T05:22:08;100747.51;;;8.63;71.41
70242;BME280;57631;52.218;0.108;2022-11-20T05:24:34;100737.44;;;8.58;69.45
70242;BME280;57631;52.218;0.108;2022-11-20T05:26:59;100735.23;;;8.98;68.14
70242;BME280;57631;52.218;0.108;2022-11-20T05:29:24;100729.18;;;9.07;67.75
70242;BME280;57631;52.218;0.108;2022-11-20T05:31:50;100726.73;;;8.95;68.74
70242;BME280;57631;52.218;0.108;2022-11-20T05:34:15;100717.80;;;8.57;70.44
70242;BME280;57631;52.218;0.108;2022-11-20T05:36:41;100711.91;;;8.21;70.77
70242;BME280;57631;52.218;0.108;2022-11-20T05:39:06;100712.84;;;7.78;73.32
70242;BME280;57631;52.218;0.108;2022-11-20T05:41:33;100710.23;;;6.72;77.91
70242;BME280;57631;52.218;0.108;2022-11-20T05:43:58;100710.05;;;7.14;76.62
70242;BME280;57631;52.218;0.108;2022-11-20T05:46:23;100701.35;;;8.41;73.45
70242;BME280;57631;52.218;0.108;2022-11-20T05:48:48;100705.50;;;8.04;74.49
70242;BME280;57631;52.218;0.108;2022-11-20T05:51:16;100703.14;;;8.05;74.56
70242;BME280;57631;52.218;0.108;2022-11-20T05:53:39;100696.50;;;8.46;72.09
70242;BME280;57631;52.218;0.108;2022-11-20T05:56:07;100701.24;;;6.87;78.20
70242;BME280;57631;52.218;0.108;2022-11-20T05:58:31;100697.94;;;6.54;80.30
70242;BME280;57631;52.218;0.108;2022-11-20T06:01:03;100687.33;;;6.49;81.83
70242;BME280;57631;52.218;0.108;2022-11-20T06:03:21;100686.17;;;7.13;80.34
70242;BME280;57631;52.218;0.108;2022-11-20T06:05:46;100693.08;;;6.42;84.31
70242;BME280;57631;52.218;0.108;2022-11-20T06:08:12;100683.02;;;7.36;80.66
70242;BME280;57631;52.218;0.108;2022-11-20T06:10:37;100683.12;;;6.53;82.59
70242;BME280;57631;52.218;0.108;2022-11-20T06:13:03;100679.54;;;6.79;83.67
70242;BME280;57631;52.218;0.108;2022-11-20T06:15:28;100677.85;;;6.84;84.55
70242;BME280;57631;52.218;0.108;2022-11-20T06:17:54;100673.52;;;6.44;87.63
70242;BME280;57631;52.218;0.108;2022-11-20T06:20:19;100671.55;;;7.70;80.89
70242;BME280;57631;52.218;0.108;2022-11-20T06:22:45;100670.95;;;8.28;78.24
70242;BME280;57631;52.218;0.108;2022-11-20T06:25:10;100670.27;;;7.61;79.35
70242;BME280;57631;52.218;0.108;2022-11-20T06:27:37;100673.32;;;7.11;82.40
70242;BME280;57631;52.218;0.108;2022-11-20T06:30:02;100668.15;;;6.82;83.64
70242;BME280;57631;52.218;0.108;2022-11-20T06:32:27;100657.10;;;8.04;81.12
70242;BME280;57631;52.218;0.108;2022-11-20T06:34:52;100659.51;;;7.79;80.89
70242;BME280;57631;52.218;0.108;2022-11-20T06:37:18;100658.82;;;6.35;86.85
70242;BME280;57631;52.218;0.108;2022-11-20T06:39:43;100657.04;;;7.45;82.39
70242;BME280;57631;52.218;0.108;2022-11-20T06:42:09;100653.18;;;6.91;82.95
70242;BME280;57631;52.218;0.108;2022-11-20T06:44:35;100659.25;;;7.62;82.38
70242;BME280;57631;52.218;0.108;2022-11-20T06:47:00;100654.62;;;7.81;81.88
70242;BME280;57631;52.218;0.108;2022-11-20T06:49:26;100651.39;;;8.31;81.22
70242;BME280;57631;52.218;0.108;2022-11-20T06:51:51;100647.87;;;8.45;78.93
70242;BME280;57631;52.218;0.108;2022-11-20T06:54:16;100647.43;;;8.62;79.05
70242;BME280;57631;52.218;0.108;2022-11-20T06:56:42;100654.30;;;7.95;81.18
70242;BME280;57631;52.218;0.108;2022-11-20T06:59:08;100649.72;;;7.72;83.04
70242;BME280;57631;52.218;0.108;2022-11-20T07:01:34;100650.82;;;8.39;80.00
70242;BME280;57631;52.218;0.108;2022-11-20T07:03:59;100638.15;;;8.60;80.37
70242;BME280;57631;52.218;0.108;2022-11-20T07:06:24;100635.96;;;6.50;87.97
70242;BME280;57631;52.218;0.108;2022-11-20T07:08:50;100631.65;;;7.49;87.81
70242;BME280;57631;52.218;0.108;2022-11-20T07:11:15;100632.94;;;6.79;87.07
70242;BME280;57631;52.218;0.108;2022-11-20T07:13:41;100628.64;;;6.09;91.41
70242;BME280;57631;52.218;0.108;2022-11-20T07:16:08;100634.63;;;5.76;93.33
70242;BME280;57631;52.218;0.108;2022-11-20T07:18:32;100627.76;;;5.92;92.06
70242;BME280;57631;52.218;0.108;2022-11-20T07:21:00;100623.35;;;6.92;89.01
70242;BME280;57631;52.218;0.108;2022-11-20T07:23:23;100615.81;;;8.20;84.19
70242;BME280;57631;52.218;0.108;2022-11-20T07:25:48;100626.15;;;7.91;83.93
70242;BME280;57631;52.218;0.108;2022-11-20T07:28:14;100621.52;;;8.25;83.66
70242;BME280;57631;52.218;0.108;2022-11-20T07:30:39;100618.43;;;8.45;81.14
70242;BME280;57631;52.218;0.108;2022-11-20T07:33:05;100624.33;;;8.73;81.48
70242;BME280;57631;52.218;0.108;2022-11-20T07:35:31;100625.26;;;8.86;78.94
70242;BME280;57631;52.218;0.108;2022-11-20T07:37:56;100622.61;;;9.45;76.30
70242;BME280;57631;52.218;0.108;2022-11-20T07:40:21;100628.12;;;8.47;81.30
70242;BME280;57631;52.218;0.108;2022-11-20T07:42:48;100621.81;;;9.02;79.05
70242;BME280;57631;52.218;0.108;2022-11-20T07:45:12;100615.98;;;8.94;78.28
70242;BME280;57631;52.218;0.108;2022-11-20T07:47:38;100615.58;;;8.10;80.61
70242;BME280;57631;52.218;0.108;2022-11-20T07:50:04;100618.58;;;8.45;82.58
70242;BME280;57631;52.218;0.108;2022-11-20T07:52:29;100626.20;;;9.31;78.45
70242;BME280;57631;52.218;0.108;2022-11-20T07:54:55;100623.85;;;8.70;79.74
70242;BME280;57631;52.218;0.108;2022-11-20T07:57:20;100627.24;;;9.80;77.08
70242;BME280;57631;52.218;0.108;2022-11-20T07:59:45;100627.42;;;10.06;74.36
70242;BME280;57631;52.218;0.108;2022-11-20T08:02:11;100626.29;;;10.54;74.18
70242;BME280;57631;52.218;0.108;2022-11-20T08:04:37;100628.68;;;9.83;74.55
70242;BME280;57631;52.218;0.108;2022-11-20T08:07:02;100626.63;;;10.86;71.61
70242;BME280;57631;52.218;0.108;2022-11-20T08:09:27;100624.00;;;11.42;71.19
70242;BME280;57631;52.218;0.108;2022-11-20T08:11:53;100625.93;;;10.57;71.41
70242;BME280;57631;52.218;0.108;2022-11-20T08:14:18;100628.20;;;10.78;71.80
70242;BME280;57631;52.218;0.108;2022-11-20T08:16:45;100632.07;;;10.56;72.46
70242;BME280;57631;52.218;0.108;2022-11-20T08:19:10;100638.96;;;10.68;70.63
70242;BME280;57631;52.218;0.108;2022-11-20T08:21:36;100635.53;;;10.14;74.08
70242;BME280;57631;52.218;0.108;2022-11-20T08:24:00;100634.53;;;11.27;70.93
70242;BME280;57631;52.218;0.108;2022-11-20T08:26:26;100640.46;;;9.92;74.96
70242;BME280;57631;52.218;0.108;2022-11-20T08:28:53;100639.94;;;10.23;73.83
70242;BME280;57631;52.218;0.108;2022-11-20T08:31:16;100646.17;;;9.59;77.89
70242;BME280;57631;52.218;0.108;2022-11-20T08:33:42;100647.51;;;9.84;75.33
70242;BME280;57631;52.218;0.108;2022-11-20T08:36:08;100649.79;;;9.58;77.84
70242;BME280;57631;52.218;0.108;2022-11-20T08:38:33;100651.03;;;9.27;78.56
70242;BME280;57631;52.218;0.108;2022-11-20T08:40:59;100648.32;;;10.19;77.11
70242;BME280;57631;52.218;0.108;2022-11-20T08:43:24;100651.46;;;9.24;79.84
70242;BME280;57631;52.218;0.108;2022-11-20T08:45:49;100652.74;;;9.48;79.99
70242;BME280;57631;52.218;0.108;2022-11-20T08:48:15;100646.90;;;9.98;76.89
70242;BME280;57631;52.218;0.108;2022-11-20T08:50:40;100651.96;;;9.24;79.20
70242;BME280;57631;52.218;0.108;2022-11-20T08:53:06;100653.57;;;9.43;79.81
70242;BME280;57631;52.218;0.108;2022-11-20T08:55:31;100650.59;;;8.11;83.67
70242;BME280;57631;52.218;0.108;2022-11-20T08:57:57;100646.85;;;7.89;84.94
70242;BME280;57631;52.218;0.108;2022-11-20T09:00:22;100644.96;;;9.87;77.96
70242;BME280;57631;52.218;0.108;2022-11-20T09:02:48;100643.29;;;9.89;76.63
70242;BME280;57631;52.218;0.108;2022-11-20T09:05:13;100639.49;;;10.42;76.63
70242;BME280;57631;52.218;0.108;2022-11-20T09:07:39;100638.81;;;9.19;77.31
70242;BME280;57631;52.218;0.108;2022-11-20T09:10:05;100635.13;;;10.50;75.67
70242;BME280;57631;52.218;0.108;2022-11-20T09:12:30;100636.73;;;9.71;76.84
70242;BME280;57631;52.218;0.108;2022-11-20T09:14:55;100632.06;;;10.38;74.71
70242;BME280;57631;52.218;0.108;2022-11-20T09:17:21;100627.98;;;9.13;79.96
70242;BME280;57631;52.218;0.108;2022-11-20T09:19:46;100626.30;;;8.89;79.45
70242;BME280;57631;52.218;0.108;2022-11-20T09:22:12;100623.93;;;8.46;84.11
70242;BME280;57631;52.218;0.108;2022-11-20T09:24:37;100627.64;;;8.99;81.24
70242;BME280;57631;52.218;0.108;2022-11-20T09:27:04;100625.06;;;9.29;81.95
70242;BME280;57631;52.218;0.108;2022-11-20T09:29:28;100627.91;;;10.07;78.46
70242;BME280;57631;52.218;0.108;2022-11-20T09:31:53;100630.24;;;9.36;80.48
70242;BME280;57631;52.218;0.108;2022-11-20T09:34:19;100629.13;;;9.62;77.78
70242;BME280;57631;52.218;0.108;2022-11-20T09:36:44;100634.36;;;8.96;79.87
70242;BME280;57631;52.218;0.108;2022-11-20T09:39:10;100634.50;;;9.19;79.10
70242;BME280;57631;52.218;0.108;2022-11-20T09:41:46;100636.05;;;10.56;75.72
70242;BME280;57631;52.218;0.108;2022-11-20T09:44:07;100643.14;;;9.70;76.76
70242;BME280;57631;52.218;0.108;2022-11-20T09:46:29;100638.05;;;9.98;75.72
70242;BME280;57631;52.218;0.108;2022-11-20T09:49:03;100632.34;;;10.48;73.91
70242;BME280;57631;52.218;0.108;2022-11-20T09:51:27;100638.49;;;9.99;76.07
70242;BME280;57631;52.218;0.108;2022-11-20T09:53:51;100637.90;;;10.31;73.79
70242;BME280;57631;52.218;0.108;2022-11-20T09:56:09;100636.30;;;9.93;76.79
70242;BME280;57631;52.218;0.108;2022-11-20T09:58:38;100636.24;;;10.89;74.34
70242;BME280;57631;52.218;0.108;2022-11-20T10:01:07;100633.26;;;10.82;74.03
70242;BME280;57631;52.218;0.108;2022-11-20T10:03:33;100633.11;;;9.00;78.21
70242;BME280;57631;52.218;0.108;2022-11-20T10:05:53;100628.53;;;9.64;75.76
70242;BME280;57631;52.218;0.108;2022-11-20T10:08:19;100627.91;;;10.72;72.99
70242;BME280;57631;52.218;0.108;2022-11-20T10:10:44;100624.36;;;10.87;72.39
70242;BME280;57631;52.218;0.108;2022-11-20T10:13:17;100625.64;;;10.72;73.38
70242;BME280;57631;52.218;0.108;2022-11-20T10:15:37;100631.37;;;11.02;71.40
70242;BME280;57631;52.218;0.108;2022-11-20T10:18:09;100626.35;;;11.20;70.58
70242;BME280;57631;52.218;0.108;2022-11-20T10:20:29;100621.44;;;11.46;70.78
70242;BME280;57631;52.218;0.108;2022-11-20T10:23:02;100625.09;;;11.31;70.48
70242;BME280;57631;52.218;0.108;2022-11-20T10:25:18;100626.46;;;11.57;69.51
70242;BME280;57631;52.218;0.108;2022-11-20T10:27:52;100632.65;;;10.98;70.03
70242;BME280;57631;52.218;0.108;2022-11-20T10:30:09;100631.32;;;11.19;69.67
70242;BME280;57631;52.218;0.108;2022-11-20T10:32:35;100632.34;;;12.00;68.41
70242;BME280;57631;52.218;0.108;2022-11-20T10:35:00;100628.52;;;11.47;68.71
70242;BME280;57631;52.218;0.108;2022-11-20T10:37:24;100628.72;;;11.90;67.45
70242;BME280;57631;52.218;0.108;2022-11-20T10:39:53;100618.38;;;12.04;66.26
70242;BME280;57631;52.218;0.108;2022-11-20T10:42:17;100617.36;;;12.69;67.75
70242;BME280;57631;52.218;0.108;2022-11-20T10:44:39;100613.12;;;11.13;67.63
70242;BME280;57631;52.218;0.108;2022-11-20T10:47:05;100608.38;;;11.76;70.19
70242;BME280;57631;52.218;0.108;2022-11-20T10:49:31;100607.00;;;11.74;68.41
70242;BME280;57631;52.218;0.108;2022-11-20T10:52:03;100602.50;;;12.00;68.90
70242;BME280;57631;52.218;0.108;2022-11-20T10:54:29;100595.51;;;11.72;67.52
70242;BME280;57631;52.218;0.108;2022-11-20T10:56:50;100592.68;;;11.32;68.71
70242;BME280;57631;52.218;0.108;2022-11-20T11:01:40;100598.60;;;11.20;69.80
70242;BME280;57631;52.218;0.108;2022-11-20T11:04:06;100598.14;;;11.04;70.09
70242;BME280;57631;52.218;0.108;2022-11-20T11:06:32;100606.48;;;10.28;72.30
70242;BME280;57631;52.218;0.108;2022-11-20T11:08:56;100604.35;;;11.72;68.26
70242;BME280;57631;52.218;0.108;2022-11-20T11:11:21;100602.64;;;11.21;71.12
70242;BME280;57631;52.218;0.108;2022-11-20T11:13:44;100599.25;;;11.30;70.24
70242;BME280;57631;52.218;0.108;2022-11-20T11:16:20;100597.81;;;11.88;69.41
70242;BME280;57631;52.218;0.108;2022-11-20T11:18:35;100592.56;;;12.19;67.54
70242;BME280;57631;52.218;0.108;2022-11-20T11:21:02;100589.17;;;12.49;67.70
70242;BME280;57631;52.218;0.108;2022-11-20T11:23:31;100594.60;;;11.59;68.32
70242;BME280;57631;52.218;0.108;2022-11-20T11:25:57;100600.25;;;11.84;69.23
70242;BME280;57631;52.218;0.108;2022-11-20T11:28:21;100595.53;;;11.79;68.94
70242;BME280;57631;52.218;0.108;2022-11-20T11:30:43;100592.08;;;12.24;68.00
70242;BME280;57631;52.218;0.108;2022-11-20T11:33:11;100598.70;;;11.25;70.65
70242;BME280;57631;52.218;0.108;2022-11-20T11:35:33;100598.37;;;11.00;72.10
70242;BME280;57631;52.218;0.108;2022-11-20T11:38:04;100603.07;;;11.03;71.65
70242;BME280;57631;52.218;0.108;2022-11-20T11:40:24;100604.75;;;11.70;69.30
70242;BME280;57631;52.218;0.108;2022-11-20T11:42:54;100607.13;;;11.24;70.52
70242;BME280;57631;52.218;0.108;2022-11-20T11:45:16;100605.56;;;11.41;69.99
70242;BME280;57631;52.218;0.108;2022-11-20T11:47:45;100608.59;;;11.15;69.30
70242;BME280;57631;52.218;0.108;2022-11-20T11:50:16;100608.76;;;11.66;68.76
70242;BME280;57631;52.218;0.108;2022-11-20T11:52:34;100607.31;;;12.02;67.61
70242;BME280;57631;52.218;0.108;2022-11-20T11:54:59;100603.32;;;11.50;67.95
70242;BME280;57631;52.218;0.108;2022-11-20T11:57:29;100600.91;;;11.47;68.28
70242;BME280;57631;52.218;0.108;2022-11-20T11:59:56;100600.53;;;11.04;69.62
70242;BME280;57631;52.218;0.108;2022-11-20T12:02:24;100594.96;;;12.30;68.97
70242;BME280;57631;52.218;0.108;2022-11-20T12:04:44;100590.71;;;12.12;65.88
70242;BME280;57631;52.218;0.108;2022-11-20T12:07:10;100598.79;;;12.18;65.24
70242;BME280;57631;52.218;0.108;2022-11-20T12:09:35;100594.26;;;13.88;61.56
70242;BME280;57631;52.218;0.108;2022-11-20T12:11:58;100592.59;;;13.68;60.59
70242;BME280;57631;52.218;0.108;2022-11-20T12:14:22;100600.11;;;14.11;59.03
70242;BME280;57631;52.218;0.108;2022-11-20T12:16:46;100590.17;;;14.66;56.83
70242;BME280;57631;52.218;0.108;2022-11-20T12:19:12;100594.24;;;14.41;57.66
70242;BME280;57631;52.218;0.108;2022-11-20T12:21:45;100593.04;;;14.95;56.90
70242;BME280;57631;52.218;0.108;2022-11-20T12:24:23;100586.18;;;16.85;51.53
70242;BME280;57631;52.218;0.108;2022-11-20T12:26:40;100583.68;;;15.85;51.68
70242;BME280;57631;52.218;0.108;2022-11-20T12:29:01;100587.94;;;16.95;51.03
70242;BME280;57631;52.218;0.108;2022-11-20T12:31:29;100590.05;;;16.41;51.76
70242;BME280;57631;52.218;0.108;2022-11-20T12:36:19;100590.47;;;16.25;50.57
70242;BME280;57631;52.218;0.108;2022-11-20T12:38:46;100590.90;;;15.90;51.94
70242;BME280;57631;52.218;0.108;2022-11-20T12:41:04;100590.98;;;16.54;51.37
70242;BME280;57631;52.218;0.108;2022-11-20T12:43:26;100593.65;;;16.48;49.03
70242;BME280;57631;52.218;0.108;2022-11-20T12:45:59;100586.78;;;15.36;49.97
70242;BME280;57631;52.218;0.108;2022-11-20T12:50:49;100588.27;;;16.34;48.90
70242;BME280;57631;52.218;0.108;2022-11-20T12:53:15;100578.39;;;18.32;45.98